Time;durP1;ratioP1;P1;durP2;ratioP2;P2;SDS_P1;SDS_P2;PMS_P1;PMS_P2;Temp;Humidity;BMP_temperature;BMP_pressure;BME280_temperature;BME280_humidity;BME280_pressure;Samples;Min_cycle;Max_cycle;Signal;HPM_P1;HPM_P2
2023/01/06 00:00:27;;;;;;;23.58;10.52;;;;;;;;;;5015352;28;20041;-69
2023/01/06 00:02:53;;;;;;;26.55;10.60;;;;;;;;;;5032130;28;20142;-68
2023/01/06 00:05:19;;;;;;;22.75;10.00;;;;;;;;;;5044594;28;20577;-68
2023/01/06 00:07:48;;;;;;;25.30;9.43;;;;;;;;;;5053006;28;20104;-68
2023/01/06 00:10:14;;;;;;;25.63;9.18;;;;;;;;;;5052807;28;20052;-70
2023/01/06 00:12:43;;;;;;;32.05;9.80;;;;;;;;;;5051351;28;20064;-68
2023/01/06 00:15:09;;;;;;;23.65;9.05;;;;;;;;;;5052788;28;20053;-68
2023/01/06 00:17:35;;;;;;;29.20;8.90;;;;;;;;;;5052908;28;20044;-68
2023/01/06 00:20:01;;;;;;;26.83;7.93;;;;;;;;;;5052660;28;20040;-68
2023/01/06 00:22:27;;;;;;;25.98;7.97;;;;;;;;;;5051035;28;20111;-68
2023/01/06 00:24:53;;;;;;;28.95;9.32;;;;;;;;;;5034592;28;20390;-68
2023/01/06 00:27:19;;;;;;;24.88;6.80;;;;;;;;;;5052343;28;20037;-68
2023/01/06 00:29:47;;;;;;;18.95;6.10;;;;;;;;;;5050813;28;20060;-68
2023/01/06 00:32:14;;;;;;;31.38;8.15;;;;;;;;;;5052271;28;20049;-69
2023/01/06 00:34:40;;;;;;;30.17;7.30;;;;;;;;;;5050965;28;20094;-68
2023/01/06 00:37:05;;;;;;;22.80;6.63;;;;;;;;;;5052347;28;20489;-68
2023/01/06 00:39:31;;;;;;;22.50;5.68;;;;;;;;;;5052460;28;20041;-68
2023/01/06 00:42:03;;;;;;;25.35;7.50;;;;;;;;;;5051984;28;20517;-69
2023/01/06 00:44:33;;;;;;;29.60;7.03;;;;;;;;;;5052228;28;20119;-68
2023/01/06 00:46:59;;;;;;;20.80;6.40;;;;;;;;;;5053286;28;20466;-69
2023/01/06 00:49:25;;;;;;;23.42;7.35;;;;;;;;;;5056487;28;20033;-68
2023/01/06 00:51:52;;;;;;;25.02;7.13;;;;;;;;;;5056507;28;20468;-68
2023/01/06 00:54:18;;;;;;;23.05;7.75;;;;;;;;;;5046929;28;20071;-68
2023/01/06 00:56:46;;;;;;;24.33;8.23;;;;;;;;;;5053521;28;20136;-68
2023/01/06 00:59:13;;;;;;;26.23;7.90;;;;;;;;;;5053392;28;20421;-68
2023/01/06 01:01:39;;;;;;;27.60;7.03;;;;;;;;;;5054559;28;20128;-68
2023/01/06 01:04:05;;;;;;;20.13;7.35;;;;;;;;;;5055235;28;20130;-68
2023/01/06 01:06:31;;;;;;;25.92;7.63;;;;;;;;;;5054186;28;20231;-68
2023/01/06 01:08:58;;;;;;;20.08;7.03;;;;;;;;;;5054461;28;20140;-68
2023/01/06 01:14:10;;;;;;;23.85;6.20;;;;;;;;;;5054960;28;20147;-68
2023/01/06 01:16:36;;;;;;;20.08;6.43;;;;;;;;;;5056150;28;20160;-68
2023/01/06 01:19:02;;;;;;;19.08;5.90;;;;;;;;;;5056058;28;20041;-68
2023/01/06 01:21:28;;;;;;;16.30;5.90;;;;;;;;;;5053297;28;20171;-69
2023/01/06 01:23:54;;;;;;;19.58;5.53;;;;;;;;;;5053385;28;20121;-68
2023/01/06 01:26:20;;;;;;;20.98;5.35;;;;;;;;;;5054701;28;20602;-68
2023/01/06 01:28:46;;;;;;;14.77;4.72;;;;;;;;;;5054273;28;20055;-68
2023/01/06 01:31:14;;;;;;;14.50;4.50;;;;;;;;;;5036059;28;20432;-68
2023/01/06 01:33:40;;;;;;;12.82;4.03;;;;;;;;;;5055579;28;20045;-68
2023/01/06 01:36:11;;;;;;;12.80;3.88;;;;;;;;;;5054470;28;20511;-69
2023/01/06 01:38:37;;;;;;;13.93;3.85;;;;;;;;;;5055470;28;20061;-68
2023/01/06 01:41:03;;;;;;;13.90;3.75;;;;;;;;;;5054629;28;20392;-68
2023/01/06 01:43:42;;;;;;;10.75;3.50;;;;;;;;;;5054067;28;20064;-69
2023/01/06 01:46:08;;;;;;;14.05;3.90;;;;;;;;;;5053826;28;20454;-68
2023/01/06 01:48:35;;;;;;;10.05;3.70;;;;;;;;;;5055145;28;20037;-68
2023/01/06 01:51:03;;;;;;;11.70;3.40;;;;;;;;;;5037122;28;20087;-69
2023/01/06 01:53:31;;;;;;;12.32;3.97;;;;;;;;;;5040543;28;20052;-68
2023/01/06 01:55:58;;;;;;;14.45;3.78;;;;;;;;;;5039275;28;20054;-68
2023/01/06 01:58:30;;;;;;;8.82;3.60;;;;;;;;;;5035114;28;20041;-69
2023/01/06 02:00:56;;;;;;;14.82;3.78;;;;;;;;;;5035379;28;20056;-68
2023/01/06 02:03:22;;;;;;;15.30;3.95;;;;;;;;;;5034091;28;20130;-68
2023/01/06 02:05:51;;;;;;;11.25;3.65;;;;;;;;;;5034045;28;20052;-68
2023/01/06 02:08:31;;;;;;;8.38;3.60;;;;;;;;;;5035102;28;20955;-68
2023/01/06 02:10:57;;;;;;;12.25;4.25;;;;;;;;;;5035102;28;20049;-68
2023/01/06 02:13:24;;;;;;;13.95;4.05;;;;;;;;;;5053079;28;20486;-69
2023/01/06 02:15:52;;;;;;;10.00;4.07;;;;;;;;;;5034100;28;20046;-68
2023/01/06 02:18:18;;;;;;;12.75;4.30;;;;;;;;;;5039811;28;20045;-69
2023/01/06 02:20:46;;;;;;;13.10;4.30;;;;;;;;;;5053449;28;20045;-68
2023/01/06 02:23:18;;;;;;;13.40;4.65;;;;;;;;;;5054767;28;20490;-69
2023/01/06 02:25:44;;;;;;;8.07;3.47;;;;;;;;;;5054944;28;20041;-69
2023/01/06 02:28:28;;;;;;;8.77;3.78;;;;;;;;;;5053761;28;20053;-69
2023/01/06 02:30:54;;;;;;;8.10;3.47;;;;;;;;;;5044688;28;20152;-69
2023/01/06 02:33:24;;;;;;;11.93;4.47;;;;;;;;;;5033435;28;20057;-68
2023/01/06 02:35:50;;;;;;;12.93;4.35;;;;;;;;;;5033408;28;20046;-69
2023/01/06 02:38:21;;;;;;;12.00;4.47;;;;;;;;;;5045711;28;20138;-68
2023/01/06 02:40:54;;;;;;;11.88;4.45;;;;;;;;;;5036089;28;20049;-68
2023/01/06 02:43:28;;;;;;;12.05;4.20;;;;;;;;;;5052746;28;20072;-68
2023/01/06 02:46:13;;;;;;;16.35;4.47;;;;;;;;;;5054192;28;20456;-68
2023/01/06 02:48:43;;;;;;;9.57;3.78;;;;;;;;;;5053840;28;20500;-69
2023/01/06 02:51:12;;;;;;;11.98;4.13;;;;;;;;;;5054412;28;20049;-68
2023/01/06 02:53:41;;;;;;;11.18;3.70;;;;;;;;;;5053732;28;20053;-68
2023/01/06 02:56:07;;;;;;;15.20;4.72;;;;;;;;;;5038808;28;20122;-68
2023/01/06 02:58:33;;;;;;;11.75;3.80;;;;;;;;;;5036520;28;20374;-68
2023/01/06 03:01:06;;;;;;;6.50;3.00;;;;;;;;;;5050466;28;20048;-68
2023/01/06 03:03:34;;;;;;;11.30;3.90;;;;;;;;;;5052823;28;20453;-68
2023/01/06 03:06:08;;;;;;;11.20;4.13;;;;;;;;;;5052712;28;20056;-68
2023/01/06 03:08:35;;;;;;;9.23;4.30;;;;;;;;;;5051881;28;20084;-68
2023/01/06 03:11:02;;;;;;;10.48;3.63;;;;;;;;;;5053425;28;20524;-68
2023/01/06 03:13:33;;;;;;;13.82;3.97;;;;;;;;;;5052452;28;20072;-68
2023/01/06 03:16:00;;;;;;;7.00;3.40;;;;;;;;;;5054069;28;20406;-68
2023/01/06 03:18:26;;;;;;;8.43;3.25;;;;;;;;;;5052411;28;20053;-68
2023/01/06 03:20:56;;;;;;;10.98;3.80;;;;;;;;;;5053848;28;20477;-68
2023/01/06 03:23:23;;;;;;;9.23;3.25;;;;;;;;;;5053464;28;20059;-68
2023/01/06 03:25:49;;;;;;;9.88;3.58;;;;;;;;;;5053389;28;20068;-68
2023/01/06 03:28:15;;;;;;;7.13;3.47;;;;;;;;;;5053452;28;20049;-68
2023/01/06 03:31:07;;;;;;;9.93;3.95;;;;;;;;;;5052282;28;20485;-68
2023/01/06 03:33:56;;;;;;;8.85;3.53;;;;;;;;;;5028721;28;20136;-68
2023/01/06 03:36:25;;;;;;;7.32;3.40;;;;;;;;;;5033268;28;20053;-68
2023/01/06 03:38:56;;;;;;;8.68;4.00;;;;;;;;;;5050244;28;20049;-68
2023/01/06 03:44:24;;;;;;;9.35;3.95;;;;;;;;;;5051463;28;20084;-68
2023/01/06 03:46:59;;;;;;;8.75;4.43;;;;;;;;;;5036928;28;20052;-68
2023/01/06 03:49:30;;;;;;;9.48;3.88;;;;;;;;;;5053015;28;20095;-68
2023/01/06 03:51:59;;;;;;;8.70;3.75;;;;;;;;;;5053170;28;20045;-68
2023/01/06 03:54:46;;;;;;;13.45;4.20;;;;;;;;;;5051639;28;20124;-68
2023/01/06 03:57:14;;;;;;;11.00;4.30;;;;;;;;;;5033161;28;20045;-68
2023/01/06 03:59:42;;;;;;;9.82;4.32;;;;;;;;;;5033049;28;20485;-68
2023/01/06 04:02:09;;;;;;;10.80;4.47;;;;;;;;;;5031580;28;20045;-68
2023/01/06 04:04:36;;;;;;;10.00;4.40;;;;;;;;;;5033353;28;20041;-68
2023/01/06 04:07:02;;;;;;;8.48;4.57;;;;;;;;;;5034530;28;20095;-68
2023/01/06 04:09:28;;;;;;;8.68;5.05;;;;;;;;;;5052216;28;20387;-68
2023/01/06 04:14:38;;;;;;;10.02;5.63;;;;;;;;;;5053155;28;20363;-68
2023/01/06 04:17:04;;;;;;;8.23;5.22;;;;;;;;;;5052639;28;20608;-68
2023/01/06 04:19:30;;;;;;;9.50;5.38;;;;;;;;;;5052404;28;20087;-68
2023/01/06 04:21:56;;;;;;;8.18;4.78;;;;;;;;;;5051410;28;20048;-68
2023/01/06 04:24:22;;;;;;;8.88;5.85;;;;;;;;;;5051173;28;20481;-68
2023/01/06 04:26:48;;;;;;;9.27;5.38;;;;;;;;;;5051228;28;20090;-68
2023/01/06 04:29:15;;;;;;;7.95;4.70;;;;;;;;;;5052235;28;20056;-68
2023/01/06 04:31:41;;;;;;;7.13;5.22;;;;;;;;;;5050879;28;20036;-68
2023/01/06 04:34:07;;;;;;;10.38;5.20;;;;;;;;;;5050920;28;20128;-68
2023/01/06 04:36:33;;;;;;;7.60;4.63;;;;;;;;;;5050969;28;20041;-68
2023/01/06 04:38:59;;;;;;;9.30;4.75;;;;;;;;;;5051505;28;20052;-68
2023/01/06 04:41:25;;;;;;;6.60;4.45;;;;;;;;;;5051878;28;20037;-68
2023/01/06 04:43:51;;;;;;;8.65;4.03;;;;;;;;;;5051092;28;20123;-68
2023/01/06 04:46:17;;;;;;;6.38;4.13;;;;;;;;;;5051570;28;20466;-68
2023/01/06 04:48:43;;;;;;;6.90;4.00;;;;;;;;;;5052160;28;20186;-68
2023/01/06 04:51:09;;;;;;;7.07;3.80;;;;;;;;;;5050152;28;20547;-68
2023/01/06 04:53:36;;;;;;;6.53;3.95;;;;;;;;;;5050228;28;20037;-68
2023/01/06 04:56:07;;;;;;;8.77;4.05;;;;;;;;;;5050409;28;20036;-68
2023/01/06 04:58:34;;;;;;;8.75;3.92;;;;;;;;;;5050960;28;20067;-68
2023/01/06 05:01:03;;;;;;;6.35;3.60;;;;;;;;;;5051561;28;20508;-69
2023/01/06 05:03:29;;;;;;;6.03;3.55;;;;;;;;;;5050228;28;20505;-68
2023/01/06 05:05:55;;;;;;;6.43;3.45;;;;;;;;;;5051837;28;20040;-68
2023/01/06 05:08:21;;;;;;;8.13;3.33;;;;;;;;;;5051951;28;20060;-68
2023/01/06 05:10:47;;;;;;;7.13;3.22;;;;;;;;;;5051933;28;20053;-68
2023/01/06 05:13:13;;;;;;;7.82;3.20;;;;;;;;;;5051827;28;20397;-68
2023/01/06 05:15:39;;;;;;;5.57;3.00;;;;;;;;;;5050583;28;20041;-68
2023/01/06 05:18:05;;;;;;;5.90;3.20;;;;;;;;;;5050238;28;20040;-68
2023/01/06 05:20:31;;;;;;;5.90;3.00;;;;;;;;;;5050582;28;20044;-68
2023/01/06 05:22:57;;;;;;;4.75;2.80;;;;;;;;;;5049527;28;20048;-68
2023/01/06 05:25:23;;;;;;;5.63;3.22;;;;;;;;;;5051757;28;20561;-68
2023/01/06 05:27:49;;;;;;;5.80;2.70;;;;;;;;;;5051725;28;20135;-68
2023/01/06 05:30:15;;;;;;;6.38;2.78;;;;;;;;;;5048934;28;20127;-68
2023/01/06 05:32:41;;;;;;;6.85;2.90;;;;;;;;;;5049537;28;20055;-68
2023/01/06 05:35:07;;;;;;;5.63;3.10;;;;;;;;;;5054154;28;20051;-68
2023/01/06 05:37:34;;;;;;;6.53;3.10;;;;;;;;;;5055398;28;20049;-68
2023/01/06 05:40:00;;;;;;;6.40;3.53;;;;;;;;;;5055378;28;20041;-68
2023/01/06 05:42:26;;;;;;;4.63;2.80;;;;;;;;;;5045521;28;20108;-68
2023/01/06 05:44:52;;;;;;;7.30;4.00;;;;;;;;;;5047275;28;20049;-68
2023/01/06 05:47:18;;;;;;;6.40;4.20;;;;;;;;;;5055344;28;20498;-68
2023/01/06 05:49:44;;;;;;;6.55;4.30;;;;;;;;;;5053952;28;20124;-68
2023/01/06 05:52:10;;;;;;;8.18;5.05;;;;;;;;;;5054846;28;20485;-68
2023/01/06 05:54:36;;;;;;;8.70;5.47;;;;;;;;;;5035722;28;20037;-68
2023/01/06 05:57:02;;;;;;;9.93;6.13;;;;;;;;;;5041882;28;20101;-68
2023/01/06 05:59:28;;;;;;;7.05;5.88;;;;;;;;;;5054114;28;20440;-68
2023/01/06 06:01:54;;;;;;;10.75;7.28;;;;;;;;;;5055035;28;20087;-68
2023/01/06 06:04:20;;;;;;;8.77;6.90;;;;;;;;;;5054360;28;20045;-69
2023/01/06 06:06:46;;;;;;;8.98;7.97;;;;;;;;;;5053639;28;20537;-68
2023/01/06 06:09:12;;;;;;;12.32;5.80;;;;;;;;;;5048353;28;20058;-68
2023/01/06 06:11:38;;;;;;;10.98;8.40;;;;;;;;;;5035056;28;20042;-68
2023/01/06 06:14:04;;;;;;;10.75;8.95;;;;;;;;;;5033893;28;20045;-68
2023/01/06 06:16:30;;;;;;;12.43;8.95;;;;;;;;;;5035143;28;20046;-68
2023/01/06 06:18:57;;;;;;;10.65;8.55;;;;;;;;;;5032842;28;20063;-68
2023/01/06 06:21:25;;;;;;;14.32;8.90;;;;;;;;;;5034241;28;20041;-68
2023/01/06 06:23:54;;;;;;;13.57;8.98;;;;;;;;;;5044167;28;20430;-68
2023/01/06 06:26:21;;;;;;;10.48;7.90;;;;;;;;;;5054657;28;20049;-68
2023/01/06 06:28:47;;;;;;;13.15;8.52;;;;;;;;;;5051916;28;20145;-68
2023/01/06 06:31:15;;;;;;;14.80;7.25;;;;;;;;;;5050459;28;20132;-68
2023/01/06 06:33:41;;;;;;;10.80;8.45;;;;;;;;;;5052797;28;20037;-69
2023/01/06 06:36:14;;;;;;;12.55;8.40;;;;;;;;;;5054252;28;20432;-68
2023/01/06 06:38:40;;;;;;;10.63;8.18;;;;;;;;;;5054257;28;20505;-69
2023/01/06 06:41:06;;;;;;;9.07;6.45;;;;;;;;;;5053772;28;20088;-68
2023/01/06 06:43:33;;;;;;;10.55;6.70;;;;;;;;;;5054201;28;20114;-69
2023/01/06 06:45:59;;;;;;;11.20;7.85;;;;;;;;;;5053272;28;20127;-68
2023/01/06 06:48:25;;;;;;;9.30;8.02;;;;;;;;;;5053043;28;20045;-68
2023/01/06 06:51:05;;;;;;;11.15;7.25;;;;;;;;;;5053481;28;20485;-69
2023/01/06 06:53:32;;;;;;;11.07;7.22;;;;;;;;;;5036487;28;20048;-68
2023/01/06 06:55:58;;;;;;;8.98;7.60;;;;;;;;;;5053567;28;20048;-68
2023/01/06 06:58:24;;;;;;;11.60;7.88;;;;;;;;;;5052508;28;20076;-68
2023/01/06 07:00:51;;;;;;;12.05;7.88;;;;;;;;;;5048045;28;20397;-68
2023/01/06 07:03:18;;;;;;;12.32;7.18;;;;;;;;;;5053484;28;20059;-68
2023/01/06 07:05:45;;;;;;;11.30;7.78;;;;;;;;;;5047500;28;20401;-68
2023/01/06 07:08:11;;;;;;;8.90;6.60;;;;;;;;;;5051988;28;20103;-68
2023/01/06 07:10:38;;;;;;;9.00;7.20;;;;;;;;;;5053048;28;20044;-68
2023/01/06 07:13:04;;;;;;;10.23;6.47;;;;;;;;;;5052635;28;20053;-68
2023/01/06 07:15:30;;;;;;;8.23;6.03;;;;;;;;;;5053750;28;20041;-68
2023/01/06 07:18:00;;;;;;;10.35;6.30;;;;;;;;;;5052019;28;20102;-68
2023/01/06 07:20:26;;;;;;;9.45;6.28;;;;;;;;;;5052310;28;20052;-68
2023/01/06 07:22:52;;;;;;;6.22;4.65;;;;;;;;;;5053193;28;20124;-68
2023/01/06 07:25:18;;;;;;;7.00;4.65;;;;;;;;;;5052337;28;20080;-68
2023/01/06 07:27:44;;;;;;;7.05;3.95;;;;;;;;;;5053419;28;20041;-68
2023/01/06 07:30:10;;;;;;;7.72;4.65;;;;;;;;;;5035372;28;20520;-68
2023/01/06 07:32:36;;;;;;;5.53;3.78;;;;;;;;;;5053291;28;20041;-68
2023/01/06 07:35:02;;;;;;;5.55;3.85;;;;;;;;;;5051919;28;20106;-69
2023/01/06 07:37:28;;;;;;;5.10;3.50;;;;;;;;;;5051580;28;20355;-68
2023/01/06 07:39:54;;;;;;;3.95;2.67;;;;;;;;;;5051914;28;20073;-68
2023/01/06 07:42:20;;;;;;;6.00;2.70;;;;;;;;;;5052981;28;20505;-68
2023/01/06 07:44:46;;;;;;;4.82;2.70;;;;;;;;;;5051619;28;20052;-68
2023/01/06 07:47:13;;;;;;;4.22;2.80;;;;;;;;;;5053212;28;20056;-68
2023/01/06 07:49:39;;;;;;;5.57;2.33;;;;;;;;;;5053008;28;20401;-68
2023/01/06 07:52:05;;;;;;;3.47;2.00;;;;;;;;;;5052425;28;20052;-68
2023/01/06 07:54:31;;;;;;;9.10;2.20;;;;;;;;;;5049445;28;20049;-68
2023/01/06 07:56:57;;;;;;;4.93;1.92;;;;;;;;;;5040302;28;20509;-68
2023/01/06 07:59:23;;;;;;;6.20;2.00;;;;;;;;;;5033225;28;20343;-68
2023/01/06 08:01:49;;;;;;;6.20;2.00;;;;;;;;;;5050775;28;20075;-68
2023/01/06 08:04:15;;;;;;;4.13;1.77;;;;;;;;;;5052863;28;20124;-68
2023/01/06 08:06:41;;;;;;;6.07;1.80;;;;;;;;;;5052101;28;20153;-69
2023/01/06 08:09:07;;;;;;;6.60;2.25;;;;;;;;;;5051185;28;20111;-70
2023/01/06 08:11:33;;;;;;;5.60;1.80;;;;;;;;;;5034122;28;20137;-69
2023/01/06 08:13:59;;;;;;;7.88;1.70;;;;;;;;;;5032579;28;20379;-68
2023/01/06 08:16:25;;;;;;;6.82;1.85;;;;;;;;;;5014994;28;20041;-68
2023/01/06 08:18:51;;;;;;;7.07;2.08;;;;;;;;;;5032819;28;20046;-71
2023/01/06 08:21:17;;;;;;;7.32;1.67;;;;;;;;;;5048209;28;20053;-70
2023/01/06 08:23:43;;;;;;;7.20;1.70;;;;;;;;;;5052671;28;20103;-71
2023/01/06 08:26:12;;;;;;;9.00;1.83;;;;;;;;;;5051193;28;20098;-70
2023/01/06 08:28:38;;;;;;;5.43;1.70;;;;;;;;;;5052213;28;20143;-71
2023/01/06 08:31:04;;;;;;;7.82;2.42;;;;;;;;;;5052201;28;20045;-71
2023/01/06 08:33:30;;;;;;;5.85;1.85;;;;;;;;;;5052308;28;20049;-71
2023/01/06 08:36:00;;;;;;;4.65;1.40;;;;;;;;;;5052002;28;20508;-70
2023/01/06 08:38:26;;;;;;;8.30;1.80;;;;;;;;;;5051103;28;20179;-71
2023/01/06 08:40:52;;;;;;;4.50;1.55;;;;;;;;;;5052330;28;20132;-71
2023/01/06 08:43:18;;;;;;;4.28;1.38;;;;;;;;;;5052172;28;20094;-71
2023/01/06 08:45:45;;;;;;;6.07;2.03;;;;;;;;;;5052551;28;20126;-70
2023/01/06 08:48:11;;;;;;;8.95;1.88;;;;;;;;;;5051033;28;20041;-71
2023/01/06 08:50:40;;;;;;;6.50;1.52;;;;;;;;;;5051544;28;20122;-71
2023/01/06 08:53:06;;;;;;;4.60;1.70;;;;;;;;;;5051984;28;20128;-71
2023/01/06 08:55:33;;;;;;;6.85;1.50;;;;;;;;;;5037457;28;20077;-71
2023/01/06 08:57:59;;;;;;;9.05;1.98;;;;;;;;;;5031633;28;20041;-71
2023/01/06 09:00:25;;;;;;;6.45;1.70;;;;;;;;;;5031845;28;20041;-71
2023/01/06 09:02:51;;;;;;;9.32;1.80;;;;;;;;;;5032403;28;20067;-71
2023/01/06 09:05:17;;;;;;;7.05;1.70;;;;;;;;;;5031605;28;20077;-71
2023/01/06 09:07:43;;;;;;;7.43;1.60;;;;;;;;;;5032352;28;20053;-69
2023/01/06 09:10:10;;;;;;;8.25;1.85;;;;;;;;;;5036142;28;20050;-71
2023/01/06 09:12:37;;;;;;;5.07;1.40;;;;;;;;;;5035595;28;20045;-71
2023/01/06 09:15:03;;;;;;;10.93;2.03;;;;;;;;;;5034667;28;20053;-71
2023/01/06 09:17:29;;;;;;;9.02;1.90;;;;;;;;;;5036216;28;20049;-70
2023/01/06 09:19:55;;;;;;;13.50;1.98;;;;;;;;;;5036090;28;20191;-71
2023/01/06 09:22:21;;;;;;;5.97;1.63;;;;;;;;;;5035592;28;20104;-70
2023/01/06 09:24:47;;;;;;;7.07;1.60;;;;;;;;;;5052377;28;20534;-70
2023/01/06 09:27:13;;;;;;;7.53;2.35;;;;;;;;;;5053737;28;20037;-73
2023/01/06 09:29:39;;;;;;;8.75;2.22;;;;;;;;;;5053797;28;20390;-71
2023/01/06 09:32:06;;;;;;;7.28;1.80;;;;;;;;;;5042984;28;20051;-71
2023/01/06 09:34:32;;;;;;;9.45;1.83;;;;;;;;;;5034459;28;20081;-71
2023/01/06 09:36:58;;;;;;;8.90;2.10;;;;;;;;;;5053614;28;20041;-71
2023/01/06 09:39:24;;;;;;;8.18;1.95;;;;;;;;;;5049141;28;20107;-71
2023/01/06 09:41:53;;;;;;;7.38;2.10;;;;;;;;;;5043939;28;20044;-71
2023/01/06 09:44:26;;;;;;;7.72;1.88;;;6.20;99.90;;;;;;5049026;28;20532;-71
2023/01/06 09:46:52;;;;;;;8.77;2.20;;;17.30;99.90;;;;;;5050968;28;20125;-71
2023/01/06 09:49:24;;;;;;;9.05;1.95;;;18.10;99.90;;;;;;5055465;28;20048;-71
2023/01/06 09:52:00;;;;;;;9.30;2.10;;;17.70;99.90;;;;;;5054862;28;20057;-71
2023/01/06 09:54:39;;;;;;;;;;;17.20;99.90;;;;;;5051638;28;20037;-71
2023/01/06 09:57:14;;;;;;;11.82;2.35;;;17.50;99.90;;;;;;5053202;28;19920;-71
2023/01/06 09:59:57;;;;;;;8.13;1.83;;;16.90;99.90;;;;;;5055110;28;20397;-71
2023/01/06 10:02:43;;;;;;;9.20;2.38;;;16.40;99.90;;;;;;5054476;28;20124;-71
2023/01/06 10:05:20;;;;;;;9.88;1.80;;;16.10;99.90;;;;;;5054802;28;20049;-72
2023/01/06 10:08:02;;;;;;;10.27;1.98;;;15.50;99.90;;;;;;5052235;28;20087;-71
2023/01/06 10:10:50;;;;;;;8.02;1.95;;;14.80;99.90;;;;;;5031780;28;20107;-71
2023/01/06 10:13:36;;;;;;;8.13;2.35;;;13.90;99.90;;;;;;5046215;28;20092;-71
2023/01/06 10:16:20;;;;;;;11.10;2.10;;;13.20;99.90;;;;;;5045889;28;20448;-71
2023/01/06 10:18:46;;;;;;;11.77;2.25;;;12.80;99.90;;;;;;5052552;28;20072;-71
2023/01/06 10:21:32;;;;;;;8.10;1.95;;;12.50;99.90;;;;;;5051335;28;20500;-71
2023/01/06 10:24:01;;;;;;;11.23;2.38;;;12.30;99.90;;;;;;5052612;28;20048;-71
2023/01/06 10:26:29;;;;;;;11.05;2.20;;;12.20;99.90;;;;;;5052737;28;20137;-71
2023/01/06 10:29:01;;;;;;;7.55;1.67;;;13.60;99.90;;;;;;5050008;28;20049;-71
2023/01/06 10:31:33;;;;;;;11.90;2.15;;;14.50;99.90;;;;;;5049341;28;20037;-70
2023/01/06 10:33:59;;;;;;;11.82;2.00;;;15.00;99.90;;;;;;5042710;28;20123;-70
2023/01/06 10:36:40;;;;;;;8.38;1.90;;;15.60;99.90;;;;;;5044349;28;20069;-70
2023/01/06 10:39:14;;;;;;;9.43;1.77;;;16.70;99.90;;;;;;5047523;28;20049;-70
2023/01/06 10:44:49;;;;;;;8.90;2.03;;;18.10;99.90;;;;;;5047117;28;20037;-72
2023/01/06 10:47:24;;;;;;;7.40;1.77;;;17.60;99.90;;;;;;5047176;28;20500;-71
2023/01/06 10:49:50;;;;;;;7.85;1.90;;;17.10;99.90;;;;;;5031620;28;20045;-71
2023/01/06 10:52:18;;;;;;;10.02;2.00;;;17.10;99.90;;;;;;5047875;28;20053;-71
2023/01/06 10:54:44;;;;;;;10.13;1.90;;;18.00;99.90;;;;;;5042697;28;20048;-71
2023/01/06 10:57:22;;;;;;;9.13;2.00;;;17.90;99.90;;;;;;5047055;28;20033;-72
2023/01/06 11:00:15;;;;;;;8.30;2.00;;;17.90;99.90;;;;;;5046871;28;20124;-70
2023/01/06 11:02:42;;;;;;;10.07;2.33;;;17.40;99.90;;;;;;5047112;28;20119;-70
2023/01/06 11:05:12;;;;;;;10.52;1.98;;;18.00;99.90;;;;;;5047150;28;20056;-71
2023/01/06 11:08:04;;;;;;;11.70;2.35;;;18.40;99.90;;;;;;5047646;28;20049;-71
2023/01/06 11:10:33;;;;;;;7.40;2.08;;;18.50;99.90;;;;;;5043551;28;20053;-72
2023/01/06 11:13:02;;;;;;;11.80;2.22;;;18.90;99.90;;;;;;5047787;28;20405;-72
2023/01/06 11:15:38;;;;;;;10.38;2.25;;;19.20;99.90;;;;;;5050823;28;20037;-72
2023/01/06 11:18:16;;;;;;;9.30;2.10;;;19.10;99.90;;;;;;5042130;28;20088;-72
2023/01/06 11:20:42;;;;;;;8.35;1.88;;;18.50;99.90;;;;;;5041515;28;20127;-72
2023/01/06 11:23:18;;;;;;;8.00;1.92;;;19.10;99.90;;;;;;5049783;28;20116;-72
2023/01/06 11:26:11;;;;;;;9.05;1.92;;;20.30;99.90;;;;;;5048053;28;20056;-71
2023/01/06 11:28:37;;;;;;;7.20;2.33;;;20.70;99.80;;;;;;5046272;28;20072;-71
2023/01/06 11:31:17;;;;;;;10.35;2.30;;;19.90;99.90;;;;;;5047499;28;20045;-71
2023/01/06 11:34:02;;;;;;;9.55;2.00;;;19.30;99.90;;;;;;5047067;28;20051;-72
2023/01/06 11:36:31;;;;;;;10.02;2.10;;;19.80;99.90;;;;;;5048727;28;20041;-72
2023/01/06 11:39:20;;;;;;;8.65;2.10;;;20.00;99.90;;;;;;5045868;28;20049;-71
2023/01/06 11:41:48;;;;;;;8.60;1.92;;;20.60;99.30;;;;;;5043498;28;20084;-71
2023/01/06 11:44:19;;;;;;;9.85;2.15;;;21.40;98.30;;;;;;5049345;28;20142;-71
2023/01/06 11:46:51;;;;;;;8.18;2.00;;;21.30;97.70;;;;;;5046728;28;20044;-71
2023/01/06 11:49:49;;;;;;;11.52;2.15;;;20.40;97.90;;;;;;5034431;28;20048;-71
2023/01/06 11:52:30;;;;;;;15.07;2.60;;;19.60;99.30;;;;;;5043200;28;20064;-71
2023/01/06 11:54:58;;;;;;;11.75;2.22;;;18.40;99.90;;;;;;5038787;28;20045;-72
2023/01/06 11:57:57;;;;;;;14.20;2.20;;;17.50;99.90;;;;;;5040995;28;20036;-71
2023/01/06 12:00:51;;;;;;;8.82;1.92;;;16.70;99.90;;;;;;5033112;28;20049;-71
2023/01/06 12:03:33;;;;;;;8.50;2.30;;;;;;;;;;5046165;28;20371;-71
2023/01/06 12:06:18;;;;;;;9.05;2.05;;;;;;;;;;5040400;28;20057;-71
2023/01/06 12:08:47;;;;;;;12.70;2.30;;;;;;;;;;5047941;28;20134;-70
2023/01/06 12:11:16;;;;;;;10.38;2.00;;;;;;;;;;5044288;28;20064;-70
2023/01/06 12:13:42;;;;;;;13.45;2.20;;;;;;;;;;5046647;28;20392;-71
2023/01/06 12:16:14;;;;;;;11.98;2.38;;;;;;;;;;5043597;28;20474;-70
2023/01/06 12:18:41;;;;;;;12.52;2.30;;;;;;;;;;5047012;28;20449;-71
2023/01/06 12:21:11;;;;;;;9.93;1.90;;;;;;;;;;5044222;28;20049;-71
2023/01/06 12:23:39;;;;;;;11.38;2.10;;;;;;;;;;5045571;28;20390;-70
2023/01/06 12:26:11;;;;;;;8.93;1.65;;;;;;;;;;5044150;28;20377;-71
2023/01/06 12:28:39;;;;;;;9.00;2.30;;;;;;;;;;5045792;28;20258;-71
2023/01/06 12:31:21;;;;;;;7.55;1.83;;;;;;;;;;5020338;28;20744;-70
2023/01/06 12:33:51;;;;;;;8.90;2.33;;;;;;;;;;5047137;28;20049;-70
2023/01/06 12:36:36;;;;;;;10.23;2.20;;;;;;;;;;5047393;28;20041;-71
2023/01/06 12:39:11;;;;;;;12.15;2.20;;;;;;;;;;5044491;28;20056;-70
2023/01/06 12:41:40;;;;;;;8.45;1.92;;;;;;;;;;5040805;28;20055;-70
2023/01/06 12:44:19;;;;;;;11.13;2.25;;;;;;;;;;5031628;28;20045;-71
2023/01/06 12:46:54;;;;;;;8.63;2.05;;;;;;;;;;5055523;28;20409;-71
2023/01/06 12:49:39;;;;;;;9.40;2.20;;;;;;;;;;5054045;28;20119;-71
2023/01/06 12:52:08;;;;;;;14.45;2.55;;;;;;;;;;5055438;28;20109;-71
2023/01/06 12:54:35;;;;;;;11.38;2.13;;;;;;;;;;5054631;28;20144;-71
2023/01/06 12:57:16;;;;;;;5.95;1.60;;;;;;;;;;5055879;28;20041;-71
2023/01/06 12:59:44;;;;;;;11.05;2.20;;;;;;;;;;5054240;28;20481;-71
2023/01/06 13:02:13;;;;;;;11.65;2.38;;;;;;;;;;5055917;28;20050;-71
2023/01/06 13:04:51;;;;;;;10.38;2.15;;;;;;;;;;5056032;28;20045;-71
2023/01/06 13:07:23;;;;;;;9.57;2.08;;;;;;;;;;5037703;28;20144;-71
2023/01/06 13:09:55;;;;;;;10.07;2.17;;;;;;;;;;5055769;28;20048;-72
2023/01/06 13:12:40;;;;;;;9.60;2.42;;;;;;;;;;5054283;28;20053;-71
2023/01/06 13:15:14;;;;;;;8.50;2.25;;;;;;;;;;5055570;28;20041;-71
2023/01/06 13:18:12;;;;;;;12.23;2.22;;;;;;;;;;5054508;28;20079;-71
2023/01/06 13:20:38;;;;;;;11.70;2.20;;;;;;;;;;5032533;28;20122;-71
2023/01/06 13:23:11;;;;;;;12.88;2.60;;;;;;;;;;5053864;28;20044;-71
2023/01/06 13:25:51;;;;;;;10.60;2.47;;;;;;;;;;5054110;28;20049;-71
2023/01/06 13:28:17;;;;;;;11.45;2.65;;;;;;;;;;5053062;28;20045;-71
2023/01/06 13:30:50;;;;;;;7.05;2.03;;;;;;;;;;5053876;28;20056;-71
2023/01/06 13:33:34;;;;;;;7.78;2.33;;;;;;;;;;5053881;28;20041;-71
2023/01/06 13:36:18;;;;;;;13.88;2.55;;;;;;;;;;5051263;28;20056;-71
2023/01/06 13:39:03;;;;;;;8.68;2.00;;;;;;;;;;5053903;28;20099;-70
2023/01/06 13:41:32;;;;;;;14.68;2.25;;;;;;;;;;5054811;28;20477;-71
2023/01/06 13:43:58;;;;;;;13.40;2.53;;;;;;;;;;5055275;28;20051;-70
2023/01/06 13:46:26;;;;;;;11.95;2.47;;;;;;;;;;5054268;28;20401;-71
2023/01/06 13:48:53;;;;;;;11.95;2.53;;;;;;;;;;5055356;28;20071;-71
2023/01/06 13:51:25;;;;;;;10.80;2.20;;;;;;;;;;5054956;28;20052;-71
2023/01/06 13:53:53;;;;;;;13.07;2.40;;;;;;;;;;5053375;28;20343;-71
2023/01/06 13:56:23;;;;;;;10.50;2.22;;;;;;;;;;5034839;28;20398;-71
2023/01/06 13:58:50;;;;;;;12.93;2.70;;;;;;;;;;5034013;28;20406;-71
2023/01/06 14:01:19;;;;;;;13.43;3.33;;;;;;;;;;5016966;28;20052;-72
2023/01/06 14:03:49;;;;;;;10.88;2.58;;;;;;;;;;5036851;28;20045;-71
2023/01/06 14:06:21;;;;;;;10.23;2.33;;;;;;;;;;5054824;28;20052;-72
2023/01/06 14:09:10;;;;;;;9.68;2.20;;;;;;;;;;5054215;28;20060;-72
2023/01/06 14:11:40;;;;;;;10.80;2.17;;;;;;;;;;5054252;28;20045;-71
2023/01/06 14:14:07;;;;;;;10.48;2.28;;;;;;;;;;5054524;28;20049;-72
2023/01/06 14:16:39;;;;;;;15.85;2.38;;;;;;;;;;5053525;28;20049;-71
2023/01/06 14:19:16;;;;;;;11.88;2.10;;;;;;;;;;5053459;28;20045;-71
2023/01/06 14:21:42;;;;;;;13.60;2.08;;;;;;;;;;5054437;28;20045;-71
2023/01/06 14:24:20;;;;;;;13.77;2.33;;;;;;;;;;5054694;28;20401;-72
2023/01/06 14:26:51;;;;;;;9.10;2.38;;;;;;;;;;5054081;28;20524;-71
2023/01/06 14:29:35;;;;;;;11.30;2.33;;;;;;;;;;5051718;28;20528;-71
2023/01/06 14:32:01;;;;;;;9.35;2.10;;;;;;;;;;5052169;28;20103;-72
2023/01/06 14:34:27;;;;;;;11.70;2.58;;;;;;;;;;5053277;28;20048;-71
2023/01/06 14:36:53;;;;;;;7.97;1.98;;;;;;;;;;5054143;28;20116;-71
2023/01/06 14:39:22;;;;;;;16.55;2.67;;;;;;;;;;5053632;28;20132;-72
2023/01/06 14:41:57;;;;;;;7.82;2.10;;;;;;;;;;5053066;28;20115;-71
2023/01/06 14:44:30;;;;;;;11.13;2.40;;;;;;;;;;5052842;28;20049;-71